This is the latest recevied weather packets stored in our database for station/object KG2V. If no packets are shown the sender has not sent any weather packets the latest 10 day(s).
| Time | Temp. | Humidity | Pressure | Rain* | Wind** | Luminosity | Snow |
|---|---|---|---|---|---|---|---|
| 1777747943 | 7.22° C | 61% | 1010.2 hPa | 0 mm | - | 164 W/m² | - |
| 1777747640 | 6.67° C | 63% | 1010.1 hPa | 0 mm | - | 119 W/m² | - |
| 1777747335 | 6.67° C | 63% | 1010.3 hPa | 0 mm | - | 97 W/m² | - |
| 1777747032 | 7.22° C | 64% | 1010.2 hPa | 0 mm | - | 87 W/m² | - |
| 1777746728 | 6.67° C | 61% | 1010.1 hPa | 0 mm | - | 87 W/m² | - |
| 1777746423 | 7.78° C | 60% | 1010.3 hPa | 0 mm | - | 56 W/m² | - |
| 1777746119 | 7.78° C | 60% | 1010.2 hPa | 0 mm | - | 42 W/m² | - |
| 1777745817 | 7.78° C | 57% | 1010 hPa | 0 mm | - | 152 W/m² | - |
| 1777745516 | 7.22° C | 58% | 1010.2 hPa | 0 mm | - | 162 W/m² | - |
| 1777745212 | 7.78° C | 58% | 1010.1 hPa | 0 mm | - | 95 W/m² | - |
| 1777744910 | 8.33° C | 55% | 1010.1 hPa | 0 mm | - | 110 W/m² | - |
| 1777744608 | 7.78° C | 57% | 1009.9 hPa | 0 mm | - | 226 W/m² | - |
| 1777744304 | 8.33° C | 53% | 1009.9 hPa | 0 mm | - | 176 W/m² | - |
| 1777744002 | 9.44° C | 53% | 1009.8 hPa | 0 mm | - | 195 W/m² | - |
| 1777743698 | 10° C | 54% | 1009.8 hPa | 0 mm | - | 380 W/m² | - |
| 1777743396 | 8.89° C | 60% | 1009.9 hPa | 0 mm | - | 893 W/m² | - |
| 1777743093 | 8.33° C | 56% | 1009.8 hPa | 0 mm | - | 826 W/m² | - |
| 1777742790 | 8.89° C | 53% | 1009.6 hPa | 0 mm | - | 883 W/m² | - |
| 1777742487 | 8.33° C | 54% | 1009.9 hPa | 0 mm | - | 832 W/m² | - |
| 1777742182 | 8.89° C | 52% | 1009.8 hPa | 0 mm | - | 220 W/m² | - |
| 1777741880 | 8.33° C | 52% | 1009.8 hPa | 0 mm | - | 845 W/m² | - |
| 1777741577 | 9.44° C | 50% | 1009.8 hPa | 0 mm | - | 485 W/m² | - |
| 1777741274 | 8.33° C | 60% | 1010.1 hPa | 0 mm | - | 846 W/m² | - |
| 1777740970 | 7.22° C | 55% | 1010 hPa | 0 mm | - | 357 W/m² | - |
| 1777740662 | 7.78° C | 53% | 1010 hPa | 0 mm | - | 261 W/m² | - |
* Rain latest hour (hover to see other rain measurements)
** Current wind speed in m/s (hover to see current wind gust speed)